• Join FlightAware (Why Join?)
  • Login
  • US Flag 
09:32PM EDT


 

Airport Tracker/Info


-or-


 

Live Flight TrackerFlight Track Log ✈ SWA3321 ✈ 08-Apr-2013 ✈ KSMF - KSNA

Flight Track Log - Related Links

Times and Time Zones

All times are in EDT time to prevent confusion due to time zone crossing. See the SWA3321 flight status page for this flight to view local times or setup timezone preferences in your user account.

Time Position Orientation Groundspeed Altitude Reporting Facility
EDT Latitude Longitude Course Direction KTS MPH feet Rate Location/Type
04:43PM 38.7000 -121.5333 123° Southeast 264 304 4,400  Level Northern Cal TRACON
04:45PM 38.5850 -121.3542 129° Southeast 309 356 13,000 3,300 Climbing Oakland Center
04:46PM 38.5336 -121.2492 122° Southeast 331 381 16,000 3,060 Climbing Oakland Center
04:48PM 38.2986 -120.9514 109° East  Level FlightAware Approximate
04:48PM 38.4611 -121.1167 125° Southeast 409 471 19,300  Level Oakland Center
04:49PM 38.3939 -120.9881 124° Southeast 429 494 22,300 3,000 Climbing Oakland Center
04:50PM 38.3225 -120.8528 124° Southeast 455 524 25,500 2,280 Climbing Oakland Center
04:51PM 38.2361 -120.6936 125° Southeast 455 524 27,000 720 Climbing Oakland Center
04:52PM 38.1311 -120.5831 140° Southeast 494 568 27,000  Level Oakland Center
04:53PM 38.0236 -120.4772 142° Southeast 488 562 27,000  Level Oakland Center
04:54PM 37.9156 -120.3733 143° Southeast 486 559 27,000  Level Oakland Center
04:55PM 37.8092 -120.2678 142° Southeast 485 558 27,000  Level Oakland Center
04:56PM 37.7014 -120.1656 143° Southeast 484 557 27,000  Level Oakland Center
04:57PM 37.5925 -120.0672 144° Southeast 483 556 27,000  Level Oakland Center
04:58PM 37.4886 -119.9650 142° Southeast 473 544 27,000  Level Oakland Center
04:59PM 37.3825 -119.8639 143° Southeast 477 549 27,000  Level Oakland Center
05:00PM 37.2750 -119.7600 142° Southeast 473 544 27,000  Level Oakland Center
05:01PM 37.1700 -119.6600 143° Southeast 473 544 27,000  Level Oakland Center
05:02PM 37.0489 -119.5975 158° South 482 555 27,000  Level Oakland Center
05:03PM 36.9142 -119.5992 181° South 481 554 27,000  Level Oakland Center
05:04PM 36.7797 -119.6008 181° South 480 552 27,000  Level Oakland Center
05:05PM 36.6478 -119.6042 181° South 473 544 27,000  Level Oakland Center
05:06PM 36.4864 -119.6050 180° South 482 555 27,000  Level Oakland Center
05:07PM 36.3511 -119.6064 180° South 484 557 27,000  Level Oakland Center
05:08PM 36.2172 -119.6092 181° South 481 554 27,000  Level Oakland Center
05:09PM 36.0831 -119.6106 180° South 482 555 27,000  Level Oakland Center
05:10PM 35.9486 -119.6158 182° South 481 554 27,000  Level Oakland Center
05:11PM 35.8133 -119.6206 182° South 482 555 27,000 -60 Level Oakland Center
05:12PM 35.6747 -119.6264 182° South 492 566 26,900  Descending Oakland Center
05:13PM 35.5392 -119.6311 182° South 486 559 27,000  Climbing Oakland Center
05:14PM 35.4036 -119.6353 181° South 484 557 27,000  Level Oakland Center
05:15PM 35.2683 -119.6350 180° South 483 556 27,000  Level Oakland Center
05:16PM 35.1486 -119.5492 150° Southeast 501 577 27,000  Level Oakland Center
05:17PM 35.0356 -119.4542 145° Southeast 491 565 27,000  Level Oakland Center
05:18PM 34.9256 -119.3589 145° Southeast 487 560 27,000  Level Oakland Center
05:19PM 34.8144 -119.2628 145° Southeast 488 562 27,000  Level Oakland Center
05:20PM 34.6806 -119.1508 145° Southeast 488 562 27,000 -540 Level Oakland Center
05:21PM 34.5636 -119.0547 146° Southeast 477 549 25,800 -1,500 Descending Los Angeles Center
05:22PM 34.4544 -118.9647 146° Southeast 482 555 23,600 -2,220 Descending Los Angeles Center
05:23PM 34.3211 -118.8694 149° Southeast 453 521 21,300 -2,040 Descending Los Angeles Center
05:24PM 34.2022 -118.8247 163° South 444 511 19,400 -1,980 Descending Los Angeles Center
05:25PM 34.0883 -118.7831 163° South 430 495 17,300 -2,100 Descending Los Angeles Center
05:26PM 33.9614 -118.7364 163° South 423 487 15,100 -1,620 Descending Los Angeles Center
05:27PM 33.8528 -118.6967 163° South 410 472 14,000 -540 Descending Los Angeles Center
05:29PM 33.7408 -118.6572 164° South 398 458 14,000 -420 Level Los Angeles Center
05:30PM 33.6361 -118.6197 163° South 397 457 13,200 -840 Descending Los Angeles Center
05:31PM 33.5453 -118.5661 154° Southeast 388 447 12,300 -960 Descending Los Angeles Center
05:32PM 33.4542 -118.4878 144° Southeast 389 448 11,300 -1,080 Descending Los Angeles Center
05:33PM 33.4086 -118.3825 117° Southeast 369 425 10,200 -1,140 Descending Los Angeles Center
05:34PM 33.3961 -118.2544 97° East 328 377 9,000 -1,080 Descending Los Angeles Center
05:35PM 33.4553 -118.1992 38° Northeast 282 325 8,000 -1,020 Descending Los Angeles Center
05:36PM 33.5139 -118.1492 35° Northeast 270 311 7,000 -1,020 Descending Los Angeles Center
05:37PM 33.5722 -118.1006 35° Northeast 263 303 6,000 -1,080 Descending Los Angeles Center
05:38PM 33.6294 -118.0542 34° Northeast 255 293 4,900 -540 Descending Los Angeles Center
05:39PM 33.6906 -117.9919 40° Northeast 245 282 4,900  Level Los Angeles Center
05:40PM 33.7333 -117.9333 49° Northeast 209 241 5,000 -360 Climbing Southern California TRACON
05:41PM 33.7667 -117.8833 51° Northeast 209 241 4,200 -840 Descending Southern California TRACON
05:42PM 33.8000 -117.8333 51° Northeast 222 255 3,400 -660 Descending Southern California TRACON
05:43PM 33.7667 -117.8167 157° South 164 189 2,900 -960 Descending Southern California TRACON
05:44PM 33.7333 -117.8333 203° Southwest 138 159 1,500 -1,200 Descending Southern California TRACON
05:45PM 33.7000 -117.8500 203° Southwest 123 142 500 -1,020 Descending Southern California TRACON